Tiempo atmosférico en la estación meteorológica de Carrión De Los Céspedes, Sevilla (76 m.)



Fecha
DESCASC
Temp. máxima en grados centígrados (hora)
DESCASC
Temp. mínima en grados centígrados (hora)
DESCASC
Temp. media en grados centígrados
DESCASC
Racha de viento máxima en m/sg (hora)
DESCASC
Velocidad máxima media en intervalos de 10 minutos(hora)
DESCASC
Precipitaciones diarias en mm
DESCASC
Precipitaciones de 00:00 a 06:00 en mm
DESCASC
Precipitaciones de 06:00 a 12:00 en mm
DESCASC
Precipitaciones de 12:00 a 18:00 en mm
DESCASC
Precipitaciones de 18:00 a 24:00 en mm
DESCASC
18-10-2018 16.4 (00:00) 13 (09:40) 14.7 8.06 (05:30) 5 (09:50) 12.4 0.6 11 0.8 0
17-10-2018 26.5 (17:10) 12.2 (08:40) 19.3 7.22 (19:20) 4.44 (19:00) 0 0 0 0 0
16-10-2018 22.9 (17:00) 13.3 (07:40) 18.1 4.72 (14:50) 3.33 (14:50) 0 0 0 0 0
15-10-2018 17.4 (17:10) 9.7 (06:40) 13.5 11.67 (17:00) 6.11 (17:00) 15 0 0 14.8 0.2
14-10-2018 21.2 (03:40) 12.7 (00:00) 17 11.94 (03:50) 7.5 (03:50) 17.8 17.8 0 0 0
13-10-2018 30.9 (16:50) 16.5 (00:00) 23.7 8.06 (18:10) 5 (17:30) 0 0 0 0 0
12-10-2018 27.4 (17:20) 19.6 (00:00) 23.5 4.72 (17:10) 3.06 (17:10) 5.6 0.6 5 0 0
11-10-2018 25 (14:20) 18.4 (03:30) 21.7 10 (18:30) 5.28 (15:20) 10.8 0.4 9.8 0 0.6
10-10-2018 26.2 (15:20) 17.3 (00:00) 21.8 9.44 (17:20) 5 (17:50) 1 0 0.8 0 0.2
09-10-2018 27.9 (16:50) 10.8 (04:20) 19.3 8.33 (17:20) 4.44 (17:50) 0 0 0 0 0
08-10-2018 29.3 (16:30) 10.6 (07:20) 19.9 8.89 (17:20) 4.72 (18:00) 0 0 0 0 0
07-10-2018 31.8 (16:40) 13.3 (08:40) 22.5 9.72 (16:50) 6.11 (19:20) 0 0 0 0 0
06-10-2018 32.3 (16:30) 12.6 (05:10) 22.4 8.61 (18:00) 4.72 (18:00) 0 0 0 0 0
05-10-2018 32 (16:40) 13.1 (05:40) 22.6 6.94 (10:50) 4.44 (10:50) 0 0 0 0 0
04-10-2018 32.4 (16:50) 13.8 (00:00) 23.1 5.28 (17:40) 3.33 (10:30) 0 0 0 0 0
03-10-2018 31.7 (17:20) 14 (00:00) 22.9 6.67 (13:50) 3.06 (11:00) 0 0 0 0 0
02-10-2018 33.5 (17:50) 15.3 (00:00) 24.4 8.61 (11:40) 5.56 (11:50) 0 0 0 0 0
01-10-2018 34.8 (16:40) 16.8 (00:00) 25.8 9.72 (17:40) 5.83 (17:40) 1.4 0 0 1.4 0
30-09-2018 32.1 (16:20) 17.6 (00:00) 24.8 8.61 (19:10) 5 (18:50) 0 0 0 0 0
29-09-2018 32 (17:20) 15.5 (00:00) 23.8 6.67 (19:30) 4.44 (19:30) 0 0 0 0 0
28-09-2018 31.3 (17:30) 17.4 (00:00) 24.3 6.39 (15:00) 3.89 (16:40) 0 0 0 0 0
27-09-2018 32.1 (17:20) 21.8 (00:00) 26.9 11.39 (14:00) 6.67 (11:50) 0 0 0 0 0
26-09-2018 33.9 (17:30) 18.9 (00:00) 26.4 8.89 (16:20) 4.17 (10:30) 0 0 0 0 0
25-09-2018 36.1 (17:40) 17.5 (00:00) 26.8 6.39 (10:40) 3.89 (20:00) 0 0 0 0 0
24-09-2018 37.6 (16:20) 17.3 (00:00) 27.4 8.33 (17:50) 3.89 (20:20) 0 0 0 0 0
23-09-2018 37 (16:50) 18.2 (05:40) 27.6 9.17 (16:40) 4.72 (16:40) 0 0 0 0 0
22-09-2018 37.2 (16:50) 17.9 (07:00) 27.6 9.17 (16:20) 5.28 (15:20) 0 0 0 0 0
21-09-2018 35.1 (17:40) 18.1 (07:30) 26.6 5 (16:40) 2.78 (16:00) 0 0 0 0 0
20-09-2018 33.5 (17:20) 19.6 (08:50) 26.6 7.22 (19:30) 4.44 (19:40) 0 0 0 0 0

Gráficas

Temp. máximas Temp. mínimas Temp. medias Precipitaciones Rachas de viento máximas Velocidades máximas media en intervalos de 10 minutos

Datos horarios

Fecha y hora oficial Temperatura (ºC) Velocidad del viento (km/h) Dirección del viento Racha (km/h) Dirección de racha Precipitación (mm) Presión (hPa) Tendencia (hPa) Humedad (%)
2018-10-19 23:00:00 14.2 2 Norte 8 Este 0 -- -- 87
2018-10-19 22:00:00 15.3 0 Calma 10 Sudeste 0 -- -- 82
2018-10-19 21:00:00 16.7 8 Sudeste 15 Sudeste 0 -- -- 72
2018-10-19 20:00:00 18.6 10 Este 21 Sudeste 0 -- -- 63
2018-10-19 19:00:00 21.1 9 Este 22 Este 0 -- -- 55
2018-10-19 18:00:00 21.6 13 Este 25 Este 0 -- -- 54
2018-10-19 17:00:00 21.6 12 Nordeste 22 Nordeste 0 -- -- 52
2018-10-19 16:00:00 21.2 13 Este 22 Nordeste 0 -- -- 53
2018-10-19 15:00:00 20.4 12 Nordeste 23 Este 0 -- -- 61
2018-10-19 14:00:00 19.2 15 Nordeste 28 Este 0 -- -- 66
2018-10-19 13:00:00 18.1 17 Este 27 Este 0 -- -- 74
2018-10-19 12:00:00 16.9 15 Nordeste 24 Este 0 -- -- 79
2018-10-19 11:00:00 15.8 15 Nordeste 25 Nordeste 0 -- -- 82
2018-10-19 10:00:00 14.2 10 Nordeste 17 Nordeste 0 -- -- 88
2018-10-19 09:00:00 12.3 0 Calma 5 Oeste 0 -- -- 95
2018-10-19 08:00:00 12.5 2 Nordeste 5 Nordeste 0 -- -- 93
2018-10-19 07:00:00 12.8 2 Oeste 6 Oeste 0 -- -- 92
2018-10-19 06:00:00 13 4 Noroeste 17 Norte 0 -- -- 92
2018-10-19 05:00:00 13.2 9 Nordeste 14 Nordeste 0 -- -- 90
2018-10-19 04:00:00 13 6 Nordeste 10 Nordeste 0 -- -- 91
2018-10-19 03:00:00 12.7 3 Nordeste 9 Nordeste 0 -- -- 91
2018-10-19 02:00:00 13.1 6 Nordeste 20 Nordeste 0 -- -- 89
2018-10-19 01:00:00 13.2 8 Nordeste 19 Norte 0 -- -- 89
2018-10-19 00:00:00 13.7 12 Nordeste 25 Nordeste 0 -- -- 89
2018-10-18 23:00:00 13.9 14 Nordeste 26 Este 0 -- -- 89
2018-10-18 22:00:00 14 13 Nordeste 24 Este 0 -- -- 88
2018-10-18 21:00:00 14.1 17 Nordeste 26 Nordeste 0 -- -- 87
2018-10-18 20:00:00 14 12 Nordeste 29 Este 0 -- -- 87
2018-10-18 19:00:00 14.9 18 Este 26 Este 0 -- -- 85
2018-10-18 18:00:00 15.4 12 Nordeste 21 Nordeste 0 -- -- 85
2018-10-18 17:00:00 15.3 10 Este 21 Este 0 -- -- 82
2018-10-18 16:00:00 15.2 11 Este 26 Este 0 -- -- 84
2018-10-18 15:00:00 14.9 8 Sudeste 17 Sudeste 0.4 -- -- 93
2018-10-18 14:00:00 14.8 8 Sudeste 14 Sur 0.2 -- -- 94
2018-10-18 13:00:00 15.1 4 Sudeste 12 Este 0.2 -- -- 91
2018-10-18 12:00:00 14.7 9 Nordeste 18 Nordeste 0 -- -- 90
2018-10-18 11:00:00 13.8 8 Nordeste 25 Nordeste 0.8 -- -- 95
2018-10-18 10:00:00 13.1 14 Nordeste 28 Nordeste 4.2 -- -- 95
2018-10-18 09:00:00 13.4 10 Este 27 Este 2 -- -- 96
2018-10-18 08:00:00 13.6 5 Nordeste 15 Oeste 3.2 -- -- 94
2018-10-18 07:00:00 14.7 15 Sudoeste 23 Oeste 0.8 -- -- 88
2018-10-18 06:00:00 15.4 10 Norte 29 Noroeste 0 -- -- 83
2018-10-18 05:00:00 15.5 6 Noroeste 12 Noroeste 0.6 -- -- 96
2018-10-18 04:00:00 15.4 2 Noroeste 6 Noroeste 0 -- -- 97
2018-10-18 03:00:00 15.3 0 Calma 6 Sudeste 0 -- -- 97
2018-10-18 02:00:00 15.2 0 Calma 5 Sudeste 0 -- -- 96
2018-10-18 01:00:00 15.6 3 Sudeste 5 Sudeste 0 -- -- 93
2018-10-18 00:00:00 16.4 4 Sudeste 6 Sudeste 0 -- -- 91
2018-10-17 23:00:00 17.6 2 Sudoeste 7 Oeste 0 -- -- 87
2018-10-17 22:00:00 17.9 4 Norte 10 Norte 0 -- -- 85
2018-10-17 21:00:00 19.4 6 Oeste 24 Sudoeste 0 -- -- 77
2018-10-17 20:00:00 21.6 13 Sudoeste 26 Sudoeste 0 -- -- 65
2018-10-17 19:00:00 24.8 16 Oeste 26 Oeste 0 -- -- 53
2018-10-17 18:00:00 26.2 8 Oeste 22 Oeste 0 -- -- 48
2018-10-17 17:00:00 26.2 3 Sudeste 14 Sudoeste 0 -- -- 48
2018-10-17 16:00:00 25.8 5 Oeste 10 Oeste 0 -- -- 49
2018-10-17 15:00:00 24.6 5 Noroeste 14 Noroeste 0 -- -- 49
2018-10-17 14:00:00 23.7 5 Sudeste 10 Sudeste 0 -- -- 57
2018-10-17 13:00:00 22.3 3 Norte 9 Nordeste 0 -- -- 61
2018-10-17 12:00:00 20.6 4 Nordeste 14 Este 0 -- -- 69
2018-10-17 11:00:00 18.9 10 Nordeste 15 Este 0 -- -- 72
2018-10-17 10:00:00 15.3 2 Nordeste 7 Nordeste 0 -- -- 94
2018-10-17 09:00:00 12.4 0 Calma 6 Noroeste 0 -- -- 96
2018-10-17 08:00:00 12.5 0 Calma 5 Oeste 0 -- -- 95
2018-10-17 07:00:00 12.9 2 Norte 6 Norte 0 -- -- 94
2018-10-17 06:00:00 13.4 0 Calma 4 Noroeste 0 -- -- 93
2018-10-17 05:00:00 13.6 0 Calma 5 Oeste 0 -- -- 93
2018-10-17 04:00:00 13.9 0 Calma 4 Noroeste 0 -- -- 93
2018-10-17 03:00:00 14.5 0 Calma 6 Oeste 0 -- -- 91
2018-10-17 02:00:00 14.7 0 Calma 4 Oeste 0 -- -- 91
2018-10-17 01:00:00 15 0 Calma 5 Oeste 0 -- -- 92
2018-10-17 00:00:00 15.8 0 Calma 4 Oeste 0 -- -- 90
2018-10-16 23:00:00 16.6 0 Calma 10 Noroeste 0 -- -- 87
2018-10-16 22:00:00 16.9 3 Noroeste 7 Noroeste 0 -- -- 90
2018-10-16 21:00:00 18.3 0 Calma 5 Noroeste 0 -- -- 84
2018-10-16 20:00:00 20.3 0 Calma 6 Norte 0 -- -- 77
2018-10-16 19:00:00 22 3 Norte 10 Oeste 0 -- -- 64
2018-10-16 18:00:00 22.2 4 Noroeste 13 Norte 0 -- -- 61
2018-10-16 17:00:00 22.9 6 Noroeste 14 Norte 0 -- -- 62
2018-10-16 16:00:00 22.5 6 Nordeste 17 Nordeste 0 -- -- 63
2018-10-16 15:00:00 21.5 9 Nordeste 17 Este 0 -- -- 71
2018-10-16 14:00:00 19.9 8 Este 14 Nordeste 0 -- -- 77
2018-10-16 13:00:00 18.9 5 Nordeste 13 Este 0 -- -- 83
2018-10-16 12:00:00 17.4 5 Nordeste 12 Nordeste 0 -- -- 90
2018-10-16 11:00:00 16.1 6 Este 14 Nordeste 0 -- -- 99
2018-10-16 10:00:00 15 2 Noroeste 6 Noroeste 0 -- -- 99
2018-10-16 09:00:00 13.8 2 Oeste 6 Oeste 0 -- -- 98
2018-10-16 08:00:00 13.3 2 Nordeste 5 Noroeste 0 -- -- 98
2018-10-16 07:00:00 13.8 2 Norte 8 Noroeste 0 -- -- 98
2018-10-16 06:00:00 14.4 2 Noroeste 9 Noroeste 0 -- -- 97
2018-10-16 05:00:00 14.6 0 Calma 7 Noroeste 0 -- -- 96
2018-10-16 04:00:00 15.5 5 Oeste 9 Noroeste 0 -- -- 96
2018-10-16 03:00:00 15.8 5 Noroeste 13 Oeste 0 -- -- 96
2018-10-16 02:00:00 16 6 Noroeste 10 Oeste 0 -- -- 97
2018-10-16 01:00:00 16.2 4 Noroeste 7 Noroeste 0 -- -- 98
2018-10-16 00:00:00 16.2 4 Noroeste 6 Noroeste 0 -- -- 98
2018-10-15 23:00:00 16.1 0 Calma 3 Noroeste 0 -- -- 97
2018-10-15 22:00:00 16 0 Calma 4 Este 0 -- -- 97
2018-10-15 21:00:00 16.2 2 Sudoeste 7 Sudeste 0 -- -- 96
2018-10-15 20:00:00 16.8 4 Sudeste 10 Oeste 0 -- -- 95
2018-10-15 19:00:00 17.1 6 Oeste 24 Oeste 0.2 -- -- 95
2018-10-15 18:00:00 17.3 21 Oeste 40 Sur 8.6 -- -- 96
2018-10-15 17:00:00 17.3 22 Sudoeste 42 Sudoeste 3.6 -- -- 96
2018-10-15 16:00:00 16.8 14 Sur 24 Sur 1.6 -- -- 94
2018-10-15 15:00:00 16.5 16 Sur 27 Sur 1 -- -- 91
2018-10-15 14:00:00 16.8 15 Sur 30 Sur 0 -- -- 77
2018-10-15 13:00:00 16.1 14 Sur 27 Sur 0 -- -- 78
2018-10-15 12:00:00 14.5 7 Sudeste 11 Sudeste 0 -- -- 78
2018-10-15 11:00:00 13.5 4 Este 7 Este 0 -- -- 83
2018-10-15 10:00:00 11.7 3 Sudeste 5 Sudeste 0 -- -- 90
2018-10-15 09:00:00 10.6 0 Calma 3 Sudeste 0 -- -- 93
2018-10-15 08:00:00 9.8 0 Calma 4 Sudeste 0 -- -- 93
2018-10-15 07:00:00 9.7 0 Calma 4 Noroeste 0 -- -- 93
2018-10-15 06:00:00 10.1 0 Calma 6 Noroeste 0 -- -- 90
2018-10-15 05:00:00 10.4 0 Calma 12 Noroeste 0 -- -- 89
2018-10-15 04:00:00 10.8 9 Noroeste 12 Noroeste 0 -- -- 89
2018-10-15 03:00:00 11.3 5 Noroeste 9 Noroeste 0 -- -- 87
2018-10-15 02:00:00 12.2 7 Noroeste 15 Noroeste 0 -- -- 83
2018-10-15 01:00:00 13.1 7 Oeste 18 Noroeste 0 -- -- 80
2018-10-15 00:00:00 12.7 5 Noroeste 11 Noroeste 0 -- -- 84
2018-10-14 23:00:00 13.4 2 Noroeste 10 Noroeste 0 -- -- 82
2018-10-14 22:00:00 14 4 Noroeste 9 Noroeste 0 -- -- 81
2018-10-14 21:00:00 15.3 4 Noroeste 11 Noroeste 0 -- -- 76
2018-10-14 20:00:00 17.7 8 Noroeste 21 Noroeste 0 -- -- 63
2018-10-14 19:00:00 19.7 12 Noroeste 24 Noroeste 0 -- -- 52
2018-10-14 18:00:00 20.5 10 Noroeste 27 Noroeste 0 -- -- 49
2018-10-14 17:00:00 20.8 16 Noroeste 33 Noroeste 0 -- -- 49
2018-10-14 16:00:00 20.6 17 Noroeste 40 Noroeste 0 -- -- 47
2018-10-14 15:00:00 20.3 16 Noroeste 42 Oeste 0 -- -- 52
2018-10-14 14:00:00 19.4 22 Noroeste 37 Noroeste 0 -- -- 54
2018-10-14 13:00:00 18.4 12 Noroeste 33 Noroeste 0 -- -- 63
2018-10-14 12:00:00 17.5 14 Noroeste 32 Norte 0 -- -- 66
2018-10-14 11:00:00 16.2 13 Noroeste 31 Noroeste 0 -- -- 71
2018-10-14 10:00:00 15.7 16 Noroeste 27 Noroeste 0 -- -- 84
2018-10-14 09:00:00 15 15 Oeste 26 Oeste 0 -- -- 93
2018-10-14 08:00:00 15.2 13 Noroeste 28 Oeste 0 -- -- 91
2018-10-14 07:00:00 16.3 17 Oeste 31 Oeste 0 -- -- 94
2018-10-14 06:00:00 16.7 19 Oeste 30 Oeste 11.8 -- -- 95
2018-10-14 05:00:00 17.8 17 Oeste 32 Oeste 1.2 -- -- 95
2018-10-14 04:00:00 18.7 19 Oeste 43 Noroeste 4.8 -- -- 91
2018-10-14 03:00:00 20.3 12 Sur 25 Sur 0 -- -- 84
2018-10-14 02:00:00 20 10 Sudoeste 23 Sudoeste 0 -- -- 79
2018-10-14 01:00:00 20.5 11 Sudoeste 25 Sur 0 -- -- 75
2018-10-14 00:00:00 21.1 13 Sur 25 Sur 0 -- -- 75
2018-10-13 23:00:00 21.1 7 Sur 13 Sudoeste 0 -- -- 84
2018-10-13 22:00:00 21.9 4 Sudoeste 10 Sudoeste 0 -- -- 82
2018-10-13 21:00:00 23.5 3 Sudoeste 11 Sudoeste 0 -- -- 74
2018-10-13 20:00:00 25.4 7 Sudoeste 19 Oeste 0 -- -- 66
2018-10-13 19:00:00 27.8 9 Sudoeste 29 Sudoeste 0 -- -- 59
2018-10-13 18:00:00 29.9 16 Sudoeste 28 Sudoeste -- -- -- 49
2018-10-13 17:00:00 30.6 14 Sur 28 Sur 0 -- -- 43
2018-10-13 16:00:00 29.7 9 Sur 21 Sudeste 0 -- -- 50
2018-10-13 15:00:00 28.4 11 Sur 22 Sur 0 -- -- 50
2018-10-13 14:00:00 27.5 8 Sur 19 Sudeste 0 -- -- 51
2018-10-13 13:00:00 26.2 8 Sudeste 17 Este 0 -- -- 54
2018-10-13 12:00:00 23.7 8 Nordeste 19 Nordeste 0 -- -- 70
2018-10-13 11:00:00 21.7 6 Nordeste 13 Nordeste 0 -- -- 76
2018-10-13 10:00:00 19.8 4 Este 8 Este 0 -- -- 87
2018-10-13 09:00:00 17.2 3 Noroeste 6 Oeste 0 -- -- 97
2018-10-13 08:00:00 16.5 3 Noroeste 5 Norte 0 -- -- 97
2018-10-13 07:00:00 17.3 2 Noroeste 7 Norte 0 -- -- 97
2018-10-13 06:00:00 17.8 5 Nordeste 8 Nordeste 0 -- -- 98
2018-10-13 05:00:00 17.1 3 Noroeste 6 Noroeste 0 -- -- 96
2018-10-13 04:00:00 17.7 0 Calma 4 Oeste 0 -- -- 96
2018-10-13 03:00:00 18.1 3 Oeste 4 Oeste 0 -- -- 96
2018-10-13 02:00:00 18.5 3 Noroeste 5 Noroeste 0 -- -- 95
2018-10-13 01:00:00 19.2 0 Calma 2 Noroeste 0 -- -- 95
2018-10-13 00:00:00 19.9 0 Calma 9 Noroeste 0 -- -- 94
2018-10-12 23:00:00 20.4 0 Calma 7 Norte 0 -- -- 93
2018-10-12 22:00:00 20.9 0 Calma 9 Noroeste 0 -- -- 91
2018-10-12 21:00:00 22.1 6 Noroeste 11 Noroeste 0 -- -- 85
2018-10-12 20:00:00 23.9 6 Oeste 13 Oeste 0 -- -- 76
2018-10-12 19:00:00 25.5 11 Oeste 17 Oeste 0 -- -- 69
2018-10-12 18:00:00 26.4 7 Oeste 17 Oeste 0 -- -- 67
2018-10-12 17:00:00 26.7 8 Oeste 16 Oeste 0 -- -- 65
2018-10-12 16:00:00 26 3 Noroeste 13 Sudoeste 0 -- -- 69
2018-10-12 15:00:00 25.4 6 Sur 15 Sudeste 0 -- -- 74
2018-10-12 14:00:00 23.9 8 Sur 17 Sur 0 -- -- 82
2018-10-12 13:00:00 22.4 9 Sur 15 Sudeste 0 -- -- 88
2018-10-12 12:00:00 21.6 7 Sudeste 14 Sudeste 0 -- -- 95
2018-10-12 11:00:00 20.4 5 Sudeste 10 Sudeste 0 -- -- 97
2018-10-12 10:00:00 20 0 Calma 11 Sur 1.2 -- -- 98
2018-10-12 09:00:00 19.8 9 Sur 15 Sur 2.2 -- -- 98
2018-10-12 08:00:00 19.7 7 Sudeste 13 Sudeste 0.2 -- -- 98
2018-10-12 07:00:00 19.8 8 Sudeste 14 Sudeste 1.4 -- -- 98
2018-10-12 06:00:00 19.9 6 Sudeste 14 Sudeste 0.2 -- -- 98
2018-10-12 05:00:00 19.8 7 Sudeste 13 Sudeste 0.2 -- -- 98
2018-10-12 04:00:00 19.6 6 Sudeste 11 Sur 0 -- -- 97
2018-10-12 03:00:00 19.9 8 Sudeste 14 Sudeste 0 -- -- 97
2018-10-12 02:00:00 20.5 2 Sur 7 Sudeste 0.2 -- -- 97
2018-10-12 01:00:00 20.6 4 Sudeste 6 Sudeste 0 -- -- 96
2018-10-12 00:00:00 20.7 4 Sudoeste 9 Sudoeste 0.4 -- -- 95
2018-10-11 23:00:00 20.6 6 Sur 18 Sur 0 -- -- 93
2018-10-11 22:00:00 20.9 10 Sur 17 Sur 0 -- -- 90
2018-10-11 21:00:00 20.6 7 Sur 31 Sudoeste 0.2 -- -- 91
2018-10-11 20:00:00 21.9 10 Sur 22 Sudoeste 0 -- -- 81
2018-10-11 19:00:00 21.7 12 Sudoeste 36 Sudoeste 0 -- -- 81
2018-10-11 18:00:00 22.8 10 Sudoeste 34 Sudoeste 0 -- -- 77
2018-10-11 17:00:00 23.3 19 Sudoeste 34 Sudoeste 0 -- -- 72
2018-10-11 16:00:00 24.4 17 Sudoeste 34 Sudoeste 0 -- -- 66
2018-10-11 15:00:00 24.6 16 Sudoeste 29 Sudoeste 0 -- -- 65
2018-10-11 14:00:00 24.5 16 Sudoeste 30 Sudoeste 0 -- -- 65
2018-10-11 13:00:00 23.7 16 Sudoeste 26 Sudoeste 0 -- -- 70
2018-10-11 12:00:00 22.5 15 Oeste 28 Oeste 0 -- -- 77
2018-10-11 11:00:00 20.4 12 Oeste 18 Oeste 0 -- -- 91
2018-10-11 10:00:00 19.5 9 Sudoeste 18 Sudoeste 0.2 -- -- 96
2018-10-11 09:00:00 19.1 12 Sur 26 Sur 9.6 -- -- 94
2018-10-11 08:00:00 19.4 9 Sudeste 19 Sudeste 0 -- -- 88
2018-10-11 07:00:00 18.7 6 Sudeste 12 Sudeste 0 -- -- 91
2018-10-11 06:00:00 18.4 3 Sudeste 12 Sur 0.4 -- -- 91
2018-10-11 05:00:00 18.8 7 Sudeste 12 Sudeste 0 -- -- 86
2018-10-11 04:00:00 18.6 5 Sudeste 8 Sudeste 0 -- -- 89
2018-10-11 03:00:00 18.7 2 Sudeste 8 Sudeste 0 -- -- 91
2018-10-11 02:00:00 19.3 5 Sudeste 10 Sudeste 0 -- -- 90
2018-10-11 01:00:00 19.4 3 Sudeste 7 Sudeste 0 -- -- 90
2018-10-11 00:00:00 19.8 4 Sudeste 6 Sudeste 0.2 -- -- 86
2018-10-10 23:00:00 20.3 0 Calma 3 Sudoeste 0 -- -- 82
2018-10-10 22:00:00 21.1 3 Sudoeste 15 Oeste 0 -- -- 78
2018-10-10 21:00:00 22 10 Sudoeste 17 Sudoeste 0 -- -- 74
2018-10-10 20:00:00 22.7 9 Sudoeste 20 Sudoeste 0 -- -- 70
2018-10-10 19:00:00 24.9 14 Sudoeste 28 Oeste 0 -- -- 59
2018-10-10 18:00:00 25.9 15 Sudoeste 34 Sudoeste 0 -- -- 57
2018-10-10 17:00:00 25 14 Sudoeste 27 Sudoeste 0 -- -- 60
2018-10-10 16:00:00 26 15 Sur 29 Sur 0 -- -- 55
2018-10-10 15:00:00 26 13 Sur 28 Sudoeste 0 -- -- 55
2018-10-10 14:00:00 24.9 10 Sudoeste 17 Oeste 0 -- -- 59
2018-10-10 13:00:00 23.9 7 Sudoeste 15 Sudoeste 0 -- -- 66
2018-10-10 12:00:00 23 8 Sur 17 Sudeste 0 -- -- 71
2018-10-10 11:00:00 21.7 3 Oeste 10 Sur 0 -- -- 77
2018-10-10 10:00:00 19.2 5 Sur 13 Sur 0 -- -- 91
2018-10-10 09:00:00 18.2 7 Sudeste 13 Sudeste 0 -- -- 93
2018-10-10 08:00:00 18.2 2 Sudeste 4 Sudeste 0.4 -- -- 93
2018-10-10 07:00:00 17.9 0 Calma 5 Noroeste 0.4 -- -- 88
2018-10-10 06:00:00 17.4 0 Calma 4 Noroeste 0 -- -- 83
2018-10-10 05:00:00 17.3 0 Calma 4 Sudeste 0 -- -- 83
2018-10-10 04:00:00 17.7 3 Sudeste 8 Sudeste 0 -- -- 85
2018-10-10 03:00:00 17.6 2 Sudeste 5 Sudeste 0 -- -- 83
2018-10-10 02:00:00 17.6 0 Calma 2 Nordeste 0 -- -- 83
2018-10-10 01:00:00 17.9 0 Calma 4 Norte 0 -- -- 82
2018-10-10 00:00:00 18 0 Calma 6 Noroeste 0 -- -- 82
2018-10-09 23:00:00 19.3 4 Noroeste 6 Sudoeste 0 -- -- 79
2018-10-09 22:00:00 19.6 3 Sur 11 Oeste 0 -- -- 76
2018-10-09 21:00:00 21.3 6 Oeste 18 Oeste 0 -- -- 69
2018-10-09 20:00:00 23.8 10 Oeste 23 Sudoeste 0 -- -- 59
2018-10-09 19:00:00 26.1 14 Sudoeste 26 Oeste 0 -- -- 47
2018-10-09 18:00:00 27.2 14 Sudoeste 30 Oeste 0 -- -- 47
2018-10-09 17:00:00 27.3 6 Oeste 21 Sudoeste 0 -- -- 46
2018-10-09 16:00:00 27.1 12 Sudoeste 21 Sudoeste 0 -- -- 48
2018-10-09 15:00:00 26.2 8 Sudoeste 22 Sudoeste 0 -- -- 52
2018-10-09 14:00:00 24.7 6 Sudeste 17 Sudeste 0 -- -- 60
2018-10-09 13:00:00 23.4 7 Sur 17 Este 0 -- -- 65
2018-10-09 12:00:00 21.1 11 Este 18 Nordeste 0 -- -- 71
2018-10-09 11:00:00 17.8 10 Nordeste 20 Este 0 -- -- 76
2018-10-09 10:00:00 15.9 12 Nordeste 22 Nordeste 0 -- -- 83
2018-10-09 09:00:00 12.5 2 Noroeste 5 Oeste 0 -- -- 90
2018-10-09 08:00:00 12.6 3 Noroeste 7 Nordeste 0 -- -- 87
2018-10-09 07:00:00 12.9 2 Noroeste 6 Noroeste 0 -- -- 84
2018-10-09 06:00:00 13 2 Noroeste 5 Norte 0 -- -- 85
2018-10-09 05:00:00 11.3 4 Norte 6 Norte 0 -- -- 89
2018-10-09 04:00:00 11 4 Oeste 7 Oeste 0 -- -- 86
2018-10-09 03:00:00 11.5 3 Oeste 4 Oeste 0 -- -- 82
2018-10-09 02:00:00 12.7 0 Calma 4 Norte 0 -- -- 81
2018-10-09 01:00:00 13.4 0 Calma 4 Oeste 0 -- -- 79
2018-10-09 00:00:00 14.8 0 Calma 4 Norte 0 -- -- 76
2018-10-08 23:00:00 16.9 3 Oeste 6 Sudoeste 0 -- -- 75
2018-10-08 22:00:00 19 0 Calma 9 Sudoeste 0 -- -- 71
2018-10-08 21:00:00 20.4 5 Sudoeste 16 Sudoeste 0 -- -- 66
2018-10-08 20:00:00 22.8 8 Sudoeste 23 Sudoeste 0 -- -- 56
2018-10-08 19:00:00 25.8 14 Sudoeste 26 Sur 0 -- -- 45
2018-10-08 18:00:00 27.6 17 Sudoeste 32 Sur 0 -- -- 37
2018-10-08 17:00:00 28.7 13 Sudoeste 26 Oeste 0 -- -- 33
2018-10-08 16:00:00 28.8 10 Sudoeste 22 Oeste 0 -- -- 38
2018-10-08 15:00:00 27 7 Sur 16 Sur 0 -- -- 48
2018-10-08 14:00:00 25.5 7 Este 17 Sudeste 0 -- -- 50
2018-10-08 13:00:00 23.9 4 Norte 17 Este 0 -- -- 57
2018-10-08 12:00:00 22.1 5 Este 17 Nordeste 0 -- -- 60
2018-10-08 11:00:00 19.2 7 Nordeste 14 Nordeste 0 -- -- 65
2018-10-08 10:00:00 15.9 6 Nordeste 13 Nordeste 0 -- -- 67
2018-10-08 09:00:00 14.1 3 Nordeste 8 Nordeste 0 -- -- 90
2018-10-08 08:00:00 10.8 0 Calma 6 Nordeste 0 -- -- 77
2018-10-08 07:00:00 10.9 0 Calma 6 Noroeste 0 -- -- 76
2018-10-08 06:00:00 11.6 0 Calma 5 Noroeste 0 -- -- 75
2018-10-08 05:00:00 11.7 3 Oeste 8 Noroeste 0 -- -- 80
2018-10-08 04:00:00 12 4 Noroeste 7 Noroeste 0 -- -- 80
2018-10-08 03:00:00 13 3 Noroeste 5 Oeste 0 -- -- 81
2018-10-08 02:00:00 14.8 4 Este 8 Sudeste 0 -- -- 86
2018-10-08 01:00:00 16.1 0 Calma 8 Noroeste 0 -- -- 80
2018-10-08 00:00:00 18.3 2 Noroeste 9 Norte 0 -- -- 78
2018-10-07 23:00:00 19.7 3 Noroeste 11 Oeste 0 -- -- 70
2018-10-07 22:00:00 21.4 6 Oeste 21 Oeste 0 -- -- 70
2018-10-07 21:00:00 23.3 16 Oeste 29 Sudoeste 0 -- -- 63
2018-10-07 20:00:00 26 14 Oeste 32 Oeste 0 -- -- 38
2018-10-07 19:00:00 30.4 18 Oeste 30 Oeste 0 -- -- 28
2018-10-07 18:00:00 31.8 17 Oeste 33 Oeste 0 -- -- 23
2018-10-07 17:00:00 31.7 18 Oeste 35 Oeste 0 -- -- 25
2018-10-07 16:00:00 31.5 18 Oeste 33 Oeste 0 -- -- 26
2018-10-07 15:00:00 31 16 Oeste 31 Oeste 0 -- -- 28
2018-10-07 14:00:00 29.9 15 Oeste 30 Oeste 0 -- -- 31
2018-10-07 13:00:00 26.6 4 Noroeste 11 Noroeste 0 -- -- 46
2018-10-07 12:00:00 23.8 4 Norte 9 Nordeste 0 -- -- 61
2018-10-07 11:00:00 21.2 2 Oeste 5 Nordeste 0 -- -- 74
2018-10-07 10:00:00 17 3 Oeste 6 Oeste 0 -- -- 86
2018-10-07 09:00:00 13.7 3 Noroeste 8 Oeste 0 -- -- 89
2018-10-07 08:00:00 13.7 3 Noroeste 6 Noroeste 0 -- -- 90
2018-10-07 07:00:00 13.9 0 Calma 6 Noroeste 0 -- -- 88
2018-10-07 06:00:00 15.4 4 Noroeste 8 Noroeste 0 -- -- 91
2018-10-07 05:00:00 16.8 0 Calma 5 Sur 0 -- -- 91
2018-10-07 04:00:00 17.4 3 Este 9 Sudeste 0 -- -- 93
2018-10-07 03:00:00 17.2 5 Sudeste 13 Sudeste 0 -- -- 86
2018-10-07 02:00:00 18.3 2 Noroeste 7 Oeste 0 -- -- 79
2018-10-07 01:00:00 20.1 5 Oeste 10 Noroeste 0 -- -- 80
2018-10-07 00:00:00 20.8 4 Noroeste 10 Oeste 0 -- -- 78
2018-10-06 23:00:00 21.8 6 Noroeste 11 Noroeste 0 -- -- 68
2018-10-06 22:00:00 22.5 6 Noroeste 13 Oeste 0 -- -- 60
2018-10-06 21:00:00 25 9 Noroeste 14 Noroeste 0 -- -- 50
2018-10-06 20:00:00 27.4 5 Oeste 24 Oeste 0 -- -- 44
2018-10-06 19:00:00 30 13 Sudoeste 26 Sudoeste 0 -- -- 37
2018-10-06 18:00:00 31.9 17 Sudoeste 31 Sudoeste 0 -- -- 32
2018-10-06 17:00:00 32 11 Sur 21 Sur 0 -- -- 30
2018-10-06 16:00:00 32.1 8 Oeste 15 Sur 0 -- -- 28
2018-10-06 15:00:00 30.6 4 Este 17 Este 0 -- -- 30
2018-10-06 14:00:00 29.5 8 Este 16 Este 0 -- -- 33
2018-10-06 13:00:00 27.6 6 Este 19 Este 0 -- -- 40
2018-10-06 12:00:00 25.2 13 Nordeste 23 Este 0 -- -- 45
2018-10-06 11:00:00 22.1 8 Nordeste 18 Nordeste 0 -- -- 51
2018-10-06 10:00:00 18 4 Noroeste 8 Norte 0 -- -- 62
2018-10-06 09:00:00 13.4 6 Noroeste 9 Noroeste 0 -- -- 73
2018-10-06 08:00:00 13.4 3 Oeste 6 Noroeste 0 -- -- 72
2018-10-06 07:00:00 14.5 4 Noroeste 10 Noroeste 0 -- -- 72
2018-10-06 06:00:00 13.7 3 Oeste 10 Este 0 -- -- 73
2018-10-06 05:00:00 13 4 Noroeste 7 Oeste 0 -- -- 71
2018-10-06 04:00:00 13.7 3 Noroeste 5 Noroeste 0 -- -- 72
2018-10-06 03:00:00 14.7 0 Calma 5 Noroeste 0 -- -- 72
2018-10-06 02:00:00 15.7 3 Noroeste 7 Norte 0 -- -- 70
2018-10-06 01:00:00 17 0 Calma 7 Noroeste 0 -- -- 64
2018-10-06 00:00:00 18.9 3 Noroeste 6 Noroeste 0 -- -- 58
2018-10-05 23:00:00 21.4 2 Oeste 12 Oeste 0 -- -- 54
2018-10-05 22:00:00 23.8 4 Sudoeste 18 Oeste 0 -- -- 48
2018-10-05 21:00:00 25.7 8 Sudoeste 15 Oeste 0 -- -- 45
2018-10-05 20:00:00 28.9 5 Sudoeste 13 Sudoeste 0 -- -- 33
2018-10-05 19:00:00 31 6 Sur 20 Sudoeste 0 -- -- 28
2018-10-05 18:00:00 31.8 9 Sur 20 Sur 0 -- -- 27
2018-10-05 17:00:00 32 8 Sudeste 19 Sudeste 0 -- -- 26
2018-10-05 16:00:00 31.6 7 Sudeste 17 Este 0 -- -- 27
2018-10-05 15:00:00 30.9 7 Este 17 Este 0 -- -- 27
2018-10-05 14:00:00 29.4 10 Nordeste 25 Nordeste 0 -- -- 30
2018-10-05 13:00:00 27.7 10 Nordeste 20 Este 0 -- -- 35
2018-10-05 12:00:00 25.3 14 Este 22 Nordeste 0 -- -- 38
2018-10-05 11:00:00 22.3 14 Nordeste 25 Nordeste 0 -- -- 43
2018-10-05 10:00:00 19.6 10 Nordeste 15 Nordeste 0 -- -- 51
2018-10-05 09:00:00 14 4 Norte 9 Nordeste 0 -- -- 69
2018-10-05 08:00:00 13.7 3 Oeste 5 Noroeste 0 -- -- 69
2018-10-05 07:00:00 13.4 4 Oeste 10 Noroeste 0 -- -- 69
2018-10-05 06:00:00 13.2 4 Oeste 8 Oeste 0 -- -- 69
2018-10-05 05:00:00 13.7 2 Noroeste 7 Oeste 0 -- -- 66
2018-10-05 04:00:00 14.4 2 Norte 6 Norte 0 -- -- 65
2018-10-05 03:00:00 15.8 0 Calma 6 Norte 0 -- -- 61
2018-10-05 02:00:00 16.9 2 Noroeste 5 Norte 0 -- -- 59
2018-10-05 01:00:00 18.3 2 Noroeste 6 Norte 0 -- -- 57
2018-10-05 00:00:00 19.3 0 Calma 7 Norte 0 -- -- 52
2018-10-04 23:00:00 21 3 Norte 10 Noroeste 0 -- -- 50
2018-10-04 22:00:00 23.3 8 Noroeste 17 Oeste 0 -- -- 44
2018-10-04 21:00:00 24.5 3 Noroeste 9 Oeste 0 -- -- 40
2018-10-04 20:00:00 29.1 5 Sur 12 Sur 0 -- -- 31
2018-10-04 19:00:00 31.1 9 Sur 17 Sudeste 0 -- -- 27
2018-10-04 18:00:00 31.9 7 Sudeste 19 Sur 0 -- -- 32
2018-10-04 17:00:00 32.4 7 Sudeste 15 Sudeste 0 -- -- 29
2018-10-04 16:00:00 31.6 6 Nordeste 14 Este 0 -- -- 32
2018-10-04 15:00:00 30.9 4 Este 12 Sur 0 -- -- 34
2018-10-04 14:00:00 29.4 6 Sudeste 17 Nordeste 0 -- -- 37
2018-10-04 13:00:00 27.5 6 Nordeste 17 Este 0 -- -- 41
2018-10-04 12:00:00 25.3 9 Nordeste 17 Nordeste 0 -- -- 48
2018-10-04 11:00:00 22.2 5 Nordeste 17 Este 0 -- -- 53
2018-10-04 10:00:00 17.6 5 Noroeste 7 Noroeste 0 -- -- 69
2018-10-04 09:00:00 14.3 0 Calma 9 Noroeste 0 -- -- 82
2018-10-04 08:00:00 14.2 5 Oeste 9 Oeste 0 -- -- 84
2018-10-04 07:00:00 14.1 5 Noroeste 8 Oeste 0 -- -- 82
2018-10-04 06:00:00 14.3 0 Calma 9 Noroeste 0 -- -- 83
2018-10-04 05:00:00 15 0 Calma 4 Norte 0 -- -- 79
2018-10-04 04:00:00 15.7 3 Norte 5 Norte 0 -- -- 79
2018-10-04 03:00:00 16.5 2 Noroeste 5 Noroeste 0 -- -- 78
2018-10-04 02:00:00 17.3 0 Calma 4 Noroeste 0 -- -- 72
2018-10-04 01:00:00 18.9 2 Norte 7 Noroeste 0 -- -- 70
2018-10-04 00:00:00 20.5 3 Noroeste 13 Noroeste 0 -- -- 65
2018-10-03 23:00:00 22.5 6 Noroeste 13 Noroeste 0 -- -- 61
2018-10-03 22:00:00 23.3 4 Noroeste 13 Sudoeste 0 -- -- 59
2018-10-03 21:00:00 24.9 0 Calma 13 Oeste 0 -- -- 53
2018-10-03 20:00:00 28.9 11 Oeste 17 Oeste 0 -- -- 43
2018-10-03 19:00:00 30.8 6 Este 11 Este 0 -- -- 30
2018-10-03 18:00:00 31.4 8 Este 14 Este 0 -- -- 29
2018-10-03 17:00:00 31.3 7 Este 21 Este 0 -- -- 32
2018-10-03 16:00:00 30.2 8 Sudeste 18 Este 0 -- -- 36
2018-10-03 15:00:00 29.4 6 Nordeste 23 Este 0 -- -- 41
2018-10-03 14:00:00 27.9 8 Este 24 Sudeste 0 -- -- 48
2018-10-03 13:00:00 26.5 8 Nordeste 18 Este 0 -- -- 56
2018-10-03 12:00:00 24 9 Nordeste 17 Nordeste 0 -- -- 54
2018-10-03 11:00:00 21 11 Nordeste 19 Nordeste 0 -- -- 56
2018-10-03 10:00:00 18.6 4 Norte 12 Nordeste 0 -- -- 48
2018-10-03 09:00:00 14.4 4 Noroeste 8 Norte 0 -- -- 65
2018-10-03 08:00:00 14.1 3 Noroeste 6 Norte 0 -- -- 80
2018-10-03 07:00:00 15 0 Calma 4 Norte 0 -- -- 82
2018-10-03 06:00:00 15.4 0 Calma 6 Sudoeste 0 -- -- 83
2018-10-03 05:00:00 14.2 2 Noroeste 9 Noroeste 0 -- -- 84
2018-10-03 04:00:00 15.4 3 Noroeste 7 Norte 0 -- -- 79
2018-10-03 03:00:00 17 0 Calma 10 Nordeste 0 -- -- 78
2018-10-03 02:00:00 18.8 3 Sudoeste 11 Oeste 0 -- -- 78
2018-10-03 01:00:00 20.2 5 Sudoeste 12 Sudoeste 0 -- -- 75
2018-10-03 00:00:00 20.9 6 Sudoeste 11 Sur 0 -- -- 73
2018-10-02 23:00:00 21.7 5 Este 15 Noroeste 0 -- -- 71
2018-10-02 22:00:00 23.1 3 Noroeste 15 Oeste 0 -- -- 63
2018-10-02 21:00:00 25.3 4 Noroeste 16 Sudoeste 0 -- -- 56
2018-10-02 20:00:00 28.6 10 Oeste 23 Sudoeste 0 -- -- 50
2018-10-02 19:00:00 32.3 6 Sur 12 Sur 0 -- -- 22
2018-10-02 18:00:00 33.4 7 Sudoeste 15 Sudoeste 0 -- -- 20
2018-10-02 17:00:00 33 5 Oeste 14 Nordeste 0 -- -- 21
2018-10-02 16:00:00 32.1 6 Este 13 Nordeste 0 -- -- 22
2018-10-02 15:00:00 30.6 6 Este 22 Este 0 -- -- 24
2018-10-02 14:00:00 29.4 12 Este 22 Este 0 -- -- 25
2018-10-02 13:00:00 27.9 14 Este 24 Nordeste 0 -- -- 28
2018-10-02 12:00:00 25.9 15 Este 31 Nordeste 0 -- -- 32
2018-10-02 11:00:00 23.7 17 Este 27 Este 0 -- -- 39
2018-10-02 10:00:00 20.9 9 Nordeste 15 Este 0 -- -- 71
2018-10-02 09:00:00 19.1 5 Nordeste 16 Nordeste 0 -- -- 97
2018-10-02 08:00:00 19.2 4 Nordeste 19 Este 0 -- -- 98
2018-10-02 07:00:00 18.6 5 Este 14 Nordeste 0 -- -- 98
2018-10-02 06:00:00 18.3 7 Nordeste 11 Nordeste 0 -- -- 98
2018-10-02 05:00:00 17.5 4 Noroeste 10 Este 0 -- -- 97
2018-10-02 04:00:00 15.6 4 Norte 8 Oeste 0 -- -- 95
2018-10-02 03:00:00 16.7 0 Calma 6 Noroeste 0 -- -- 93
2018-10-02 02:00:00 17.5 3 Noroeste 7 Este 0 -- -- 89
2018-10-02 01:00:00 19.3 0 Calma 5 Sudeste 0 -- -- 91
2018-10-02 00:00:00 19.7 8 Sudeste 10 Este 0 -- -- 86
2018-10-01 23:00:00 21.7 3 Sur 6 Sur 0 -- -- 77
2018-10-01 22:00:00 23.6 6 Sudoeste 12 Oeste 0 -- -- 68
2018-10-01 21:00:00 24.6 7 Oeste 10 Oeste 0 -- -- 63
2018-10-01 20:00:00 26.6 6 Noroeste 19 Oeste 0 -- -- 63
2018-10-01 19:00:00 27.4 6 Sudoeste 22 Sudoeste 0 -- -- 65
2018-10-01 18:00:00 25.8 12 Sudoeste 35 Nordeste 1.4 -- -- 66
2018-10-01 17:00:00 34 2 Norte 21 Sudoeste 0 -- -- 31
2018-10-01 16:00:00 34 8 Oeste 24 Oeste 0 -- -- 33
2018-10-01 15:00:00 33.3 6 Oeste 21 Oeste 0 -- -- 34
2018-10-01 14:00:00 32.1 7 Noroeste 19 Oeste 0 -- -- 36
2018-10-01 13:00:00 30.1 10 Oeste 16 Oeste 0 -- -- 44
2018-10-01 12:00:00 27.4 6 Oeste 17 Oeste 0 -- -- 54
2018-10-01 11:00:00 24.4 7 Oeste 15 Noroeste 0 -- -- 63
2018-10-01 10:00:00 20.9 8 Noroeste 14 Oeste 0 -- -- 75
2018-10-01 09:00:00 16.8 3 Noroeste 8 Noroeste 0 -- -- 83
2018-10-01 08:00:00 17 3 Oeste 12 Norte 0 -- -- 83
2018-10-01 07:00:00 17.6 3 Norte 7 Norte 0 -- -- 82
2018-10-01 06:00:00 17.7 3 Sudoeste 9 Sudoeste 0 -- -- 84
2018-10-01 05:00:00 17.3 6 Sudeste 9 Sudeste 0 -- -- 81
2018-10-01 04:00:00 17.7 0 Calma 3 Sudeste 0 -- -- 82
2018-10-01 03:00:00 17.8 2 Sur 6 Sudeste 0 -- -- 81
2018-10-01 02:00:00 18.9 4 Noroeste 10 Norte 0 -- -- 78
2018-10-01 01:00:00 19.4 2 Noroeste 9 Noroeste 0 -- -- 74
2018-10-01 00:00:00 20.4 4 Noroeste 16 Noroeste 0 -- -- 72
2018-09-30 23:00:00 21 0 Calma 10 Oeste 0 -- -- 67
2018-09-30 22:00:00 22.9 3 Noroeste 14 Oeste 0 -- -- 64
2018-09-30 21:00:00 24.6 7 Noroeste 21 Noroeste 0 -- -- 54
2018-09-30 20:00:00 26.3 8 Noroeste 31 Norte 0 -- -- 47
2018-09-30 19:00:00 30.1 14 Oeste 26 Oeste 0 -- -- 46
2018-09-30 18:00:00 31.2 15 Sudoeste 27 Sudoeste 0 -- -- 45
2018-09-30 17:00:00 30.9 8 Sur 23 Sudeste 0 -- -- 47
2018-09-30 16:00:00 31.7 6 Sur 22 Sur 0 -- -- 43
2018-09-30 15:00:00 31.6 11 Sudoeste 18 Sudoeste 0 -- -- 40
2018-09-30 14:00:00 29.6 8 Sur 16 Sudeste 0 -- -- 46
2018-09-30 13:00:00 28 5 Sudeste 14 Sudeste 0 -- -- 51
2018-09-30 12:00:00 25.9 4 Sudeste 11 Sudeste 0 -- -- 61
2018-09-30 11:00:00 24.4 5 Sur 11 Sur 0 -- -- 65
2018-09-30 10:00:00 21.3 0 Calma 9 Oeste 0 -- -- 76
2018-09-30 09:00:00 18.7 4 Sudoeste 13 Sur 0 -- -- 94
2018-09-30 08:00:00 18 5 Sudeste 10 Sur 0 -- -- 93
2018-09-30 07:00:00 18.1 6 Sudeste 9 Sudeste 0 -- -- 90
2018-09-30 06:00:00 19.1 0 Calma 4 Noroeste 0 -- -- 85
2018-09-30 05:00:00 19.8 0 Calma 13 Oeste 0 -- -- 84
2018-09-30 04:00:00 20.6 9 Noroeste 15 Oeste 0 -- -- 86
2018-09-30 03:00:00 19.8 5 Oeste 11 Oeste 0 -- -- 83
2018-09-30 02:00:00 19.5 6 Sudeste 10 Sudeste 0 -- -- 75
2018-09-30 01:00:00 21.3 0 Calma 9 Noroeste 0 -- -- 72
2018-09-30 00:00:00 22.3 2 Noroeste 9 Noroeste 0 -- -- 67
2018-09-29 23:00:00 23.4 7 Noroeste 10 Noroeste 0 -- -- 63
2018-09-29 22:00:00 24.4 8 Noroeste 11 Noroeste 0 -- -- 58
2018-09-29 21:00:00 26 3 Noroeste 16 Oeste 0 -- -- 54
2018-09-29 20:00:00 28.6 13 Oeste 24 Oeste 0 -- -- 48
2018-09-29 19:00:00 31.1 4 Sur 16 Sur 0 -- -- 41
2018-09-29 18:00:00 31.7 9 Sur 15 Sur 0 -- -- 41
2018-09-29 17:00:00 31.5 7 Sudeste 20 Sur 0 -- -- 41
2018-09-29 16:00:00 31.3 7 Sudeste 16 Sur 0 -- -- 42
2018-09-29 15:00:00 30.2 4 Sudeste 14 Este 0 -- -- 44
2018-09-29 14:00:00 29.1 4 Nordeste 12 Norte 0 -- -- 48
2018-09-29 13:00:00 27.6 5 Norte 12 Este 0 -- -- 53
2018-09-29 12:00:00 25.7 3 Nordeste 11 Este 0 -- -- 59
2018-09-29 11:00:00 23.8 8 Nordeste 14 Nordeste 0 -- -- 66
2018-09-29 10:00:00 20.5 5 Nordeste 12 Este 0 -- -- 76
2018-09-29 09:00:00 16.1 0 Calma 6 Noroeste 0 -- -- 92
2018-09-29 08:00:00 15.9 0 Calma 4 Noroeste 0 -- -- 89
2018-09-29 07:00:00 16.2 0 Calma 4 Noroeste 0 -- -- 87
2018-09-29 06:00:00 17.5 0 Calma 4 Oeste 0 -- -- 89
2018-09-29 05:00:00 19 0 Calma 5 Noroeste 0 -- -- 85
2018-09-29 04:00:00 20.3 2 Noroeste 13 Noroeste 0 -- -- 82
2018-09-29 03:00:00 21.1 6 Noroeste 13 Oeste 0 -- -- 80
2018-09-29 02:00:00 21.5 6 Noroeste 10 Noroeste 0 -- -- 79
2018-09-29 01:00:00 21.6 3 Oeste 7 Oeste 0 -- -- 77
2018-09-29 00:00:00 22.5 4 Oeste 8 Noroeste 0 -- -- 72
2018-09-28 23:00:00 23.5 4 Oeste 13 Noroeste 0 -- -- 66
2018-09-28 22:00:00 24.8 7 Noroeste 20 Oeste 0 -- -- 60
2018-09-28 21:00:00 27 8 Oeste 21 Oeste 0 -- -- 53
2018-09-28 20:00:00 29.5 7 Este 13 Este 0 -- -- 42
2018-09-28 19:00:00 30.9 8 Nordeste 19 Nordeste 0 -- -- 42
2018-09-28 18:00:00 31.1 9 Este 23 Este 0 -- -- 42
2018-09-28 17:00:00 30.5 8 Este 22 Nordeste 0 -- -- 44
2018-09-28 16:00:00 30 9 Nordeste 22 Nordeste 0 -- -- 44
2018-09-28 15:00:00 30 10 Este 23 Este 0 -- -- 46
2018-09-28 14:00:00 29.4 11 Este 22 Este 0 -- -- 49
2018-09-28 13:00:00 28.4 9 Este 22 Este 0 -- -- 50
2018-09-28 12:00:00 26.8 9 Este 17 Nordeste 0 -- -- 56
2018-09-28 11:00:00 24.3 10 Nordeste 22 Este 0 -- -- 64
2018-09-28 10:00:00 22.1 6 Norte 13 Norte 0 -- -- 71
2018-09-28 09:00:00 17.7 3 Norte 8 Nordeste 0 -- -- 86
2018-09-28 08:00:00 18.1 0 Calma 5 Sudoeste 0 -- -- 85
2018-09-28 07:00:00 18.2 0 Calma 5 Noroeste 0 -- -- 86
2018-09-28 06:00:00 18.7 3 Noroeste 6 Noroeste 0 -- -- 83
2018-09-28 05:00:00 19.1 0 Calma 9 Noroeste 0 -- -- 84
2018-09-28 04:00:00 19.9 3 Noroeste 9 Noroeste 0 -- -- 81
2018-09-28 03:00:00 20.3 2 Noroeste 6 Noroeste 0 -- -- 80
2018-09-28 02:00:00 21 0 Calma 7 Noroeste 0 -- -- 77
2018-09-28 01:00:00 22 4 Noroeste 10 Noroeste 0 -- -- 74
2018-09-28 00:00:00 23 7 Oeste 11 Oeste 0 -- -- 70
2018-09-27 23:00:00 24.4 5 Oeste 13 Sudoeste 0 -- -- 63
2018-09-27 22:00:00 25.8 5 Sudoeste 14 Sur 0 -- -- 56
2018-09-27 21:00:00 27.6 8 Sur 16 Sur 0 -- -- 50
2018-09-27 20:00:00 29.6 7 Este 22 Nordeste 0 -- -- 45
2018-09-27 19:00:00 30.8 8 Este 28 Este 0 -- -- 43
2018-09-27 18:00:00 30.8 18 Este 30 Este 0 -- -- 42
2018-09-27 17:00:00 31.4 17 Este 35 Este 0 -- -- 41
2018-09-27 16:00:00 30.8 18 Este 34 Este 0 -- -- 44
2018-09-27 15:00:00 30.7 20 Este 40 Este 0 -- -- 45
2018-09-27 14:00:00 29.9 19 Este 41 Este 0 -- -- 50
2018-09-27 13:00:00 29.6 18 Este 33 Este 0 -- -- 51
2018-09-27 12:00:00 28.1 21 Este 35 Este 0 -- -- 55
2018-09-27 11:00:00 26.5 22 Este 35 Este 0 -- -- 62
2018-09-27 10:00:00 24.2 21 Este 28 Nordeste 0 -- -- 71
2018-09-27 09:00:00 22.3 18 Nordeste 25 Nordeste 0 -- -- 78
2018-09-27 08:00:00 22 14 Nordeste 25 Nordeste 0 -- -- 78
2018-09-27 07:00:00 22.1 18 Este 30 Este 0 -- -- 78
2018-09-27 06:00:00 22.3 15 Nordeste 23 Nordeste 0 -- -- 76
2018-09-27 05:00:00 22.5 12 Nordeste 22 Nordeste 0 -- -- 74
2018-09-27 04:00:00 22.8 11 Nordeste 19 Nordeste 0 -- -- 70
2018-09-27 03:00:00 23.2 6 Nordeste 17 Este 0 -- -- 67
2018-09-27 02:00:00 23.6 10 Este 20 Nordeste 0 -- -- 64
2018-09-27 01:00:00 24.8 15 Este 22 Este 0 -- -- 60
2018-09-27 00:00:00 25.4 15 Este 24 Este 0 -- -- 60
2018-09-26 23:00:00 25.9 6 Este 16 Nordeste 0 -- -- 56
2018-09-26 22:00:00 26.8 6 Sudeste 24 Sudeste 0 -- -- 52
2018-09-26 21:00:00 28.5 14 Sudeste 26 Sudeste 0 -- -- 48
2018-09-26 20:00:00 30.9 12 Sur 25 Sur 0 -- -- 47
2018-09-26 19:00:00 32.9 11 Sur 21 Sur 0 -- -- 39
2018-09-26 18:00:00 33.8 12 Sudeste 22 Sudeste 0 -- -- 38
2018-09-26 17:00:00 33.7 9 Sur 32 Este 0 -- -- 37
2018-09-26 16:00:00 33.5 9 Sudeste 29 Sudeste 0 -- -- 38
2018-09-26 15:00:00 33.2 8 Sur 23 Este 0 -- -- 39
2018-09-26 14:00:00 32.3 10 Este 24 Este 0 -- -- 42
2018-09-26 13:00:00 30.8 11 Este 21 Este 0 -- -- 45
2018-09-26 12:00:00 29.1 8 Sudeste 19 Sudeste 0 -- -- 51
2018-09-26 11:00:00 27.2 12 Este 22 Este 0 -- -- 58
2018-09-26 10:00:00 24.7 13 Nordeste 21 Este 0 -- -- 68
2018-09-26 09:00:00 21.7 8 Nordeste 15 Nordeste 0 -- -- 71
2018-09-26 08:00:00 21 3 Norte 14 Nordeste 0 -- -- 70
2018-09-26 07:00:00 21.5 8 Nordeste 14 Nordeste 0 -- -- 69
2018-09-26 06:00:00 19.6 3 Norte 8 Norte 0 -- -- 78
2018-09-26 05:00:00 19 0 Calma 4 Norte 0 -- -- 79
2018-09-26 04:00:00 20.1 0 Calma 4 Norte 0 -- -- 76
2018-09-26 03:00:00 21 0 Calma 7 Norte 0 -- -- 74
2018-09-26 02:00:00 22.3 0 Calma 7 Noroeste 0 -- -- 72
2018-09-26 01:00:00 23.6 2 Oeste 13 Oeste 0 -- -- 70
2018-09-26 00:00:00 24.2 5 Oeste 11 Noroeste 0 -- -- 68
2018-09-25 23:00:00 25.4 6 Oeste 10 Oeste 0 -- -- 61
2018-09-25 22:00:00 26.9 5 Noroeste 11 Oeste 0 -- -- 55
2018-09-25 21:00:00 29.2 6 Noroeste 18 Oeste 0 -- -- 48
2018-09-25 20:00:00 32.6 14 Sudoeste 23 Oeste 0 -- -- 40
2018-09-25 19:00:00 35.1 10 Sur 17 Sur 0 -- -- 34
2018-09-25 18:00:00 36 8 Sudeste 17 Sudeste 0 -- -- 27
2018-09-25 17:00:00 36 10 Sudeste 21 Sur 0 -- -- 26
2018-09-25 16:00:00 35.6 6 Sur 19 Sudeste 0 -- -- 26
2018-09-25 15:00:00 35.1 10 Sudeste 22 Sur 0 -- -- 26
2018-09-25 14:00:00 34.3 9 Sudeste 19 Sudeste 0 -- -- 28
2018-09-25 13:00:00 32.8 7 Este 16 Este 0 -- -- 31
2018-09-25 12:00:00 30.3 9 Este 17 Nordeste 0 -- -- 34
2018-09-25 11:00:00 27.4 9 Nordeste 23 Nordeste 0 -- -- 41
2018-09-25 10:00:00 23.3 3 Norte 9 Oeste 0 -- -- 50
2018-09-25 09:00:00 17.7 4 Noroeste 6 Noroeste 0 -- -- 62
2018-09-25 08:00:00 17.7 0 Calma 6 Norte 0 -- -- 62
2018-09-25 07:00:00 17.8 3 Noroeste 7 Oeste 0 -- -- 61
2018-09-25 06:00:00 18.8 0 Calma 3 Oeste 0 -- -- 62
2018-09-25 05:00:00 20 0 Calma 7 Norte 0 -- -- 57
2018-09-25 04:00:00 21.8 0 Calma 11 Norte 0 -- -- 54
2018-09-25 03:00:00 22.4 5 Norte 11 Noroeste 0 -- -- 51
2018-09-25 02:00:00 22.3 3 Norte 7 Norte 0 -- -- 49
2018-09-25 01:00:00 23.6 6 Noroeste 12 Noroeste 0 -- -- 45
2018-09-25 00:00:00 24.5 6 Noroeste 10 Noroeste 0 -- -- 40
2018-09-24 23:00:00 27.1 8 Noroeste 13 Noroeste 0 -- -- 37
2018-09-24 22:00:00 28.1 3 Noroeste 10 Sudoeste 0 -- -- 35
2018-09-24 21:00:00 31.1 7 Oeste 26 Sudoeste 0 -- -- 30
2018-09-24 20:00:00 35.2 4 Sudeste 17 Este 0 -- -- 28
2018-09-24 19:00:00 36.8 12 Sudeste 27 Este 0 -- -- 25
2018-09-24 18:00:00 37.3 10 Este 30 Sudeste 0 -- -- 25
2018-09-24 17:00:00 37.4 12 Este 24 Este 0 -- -- 24
2018-09-24 16:00:00 37.3 12 Este 24 Este 0 -- -- 25
2018-09-24 15:00:00 36.4 12 Este 26 Este 0 -- -- 26
2018-09-24 14:00:00 35.3 13 Este 28 Este 0 -- -- 27
2018-09-24 13:00:00 33.5 10 Este 19 Este 0 -- -- 30
2018-09-24 12:00:00 30.7 11 Nordeste 20 Nordeste 0 -- -- 34
2018-09-24 11:00:00 27.5 10 Nordeste 17 Nordeste -- -- -- 39
2018-09-24 10:00:00 23.9 4 Norte 9 Noroeste 0 -- -- 44
2018-09-24 09:00:00 18.9 0 Calma 9 Noroeste 0 -- -- 59
2018-09-24 08:00:00 17.3 6 Noroeste 9 Noroeste 0 -- -- 59
2018-09-24 07:00:00 18.3 3 Noroeste 8 Noroeste 0 -- -- 57
2018-09-24 06:00:00 18.8 0 Calma 6 Norte 0 -- -- 54
2018-09-24 05:00:00 19.9 0 Calma 8 Noroeste 0 -- -- 53
2018-09-24 04:00:00 20.2 3 Noroeste 6 Noroeste 0 -- -- 52
2018-09-24 03:00:00 20.8 0 Calma 6 Noroeste 0 -- -- 53
2018-09-24 02:00:00 21.9 2 Noroeste 7 Norte 0 -- -- 47
2018-09-24 01:00:00 22.8 4 Norte 10 Norte 0 -- -- 44
2018-09-24 00:00:00 23.9 3 Noroeste 8 Oeste 0 -- -- 41
2018-09-23 23:00:00 25.7 6 Noroeste 10 Noroeste 0 -- -- 42
2018-09-23 22:00:00 27.7 7 Noroeste 15 Noroeste 0 -- -- 34
2018-09-23 21:00:00 30.4 3 Sudoeste 11 Sur 0 -- -- 30
2018-09-23 20:00:00 34.5 8 Sur 20 Sur 0 -- -- 24
2018-09-23 19:00:00 36.3 12 Sudeste 28 Sudeste 0 -- -- 23
2018-09-23 18:00:00 36.8 16 Este 28 Este 0 -- -- 25
2018-09-23 17:00:00 36.9 15 Sudeste 33 Este 0 -- -- 25
2018-09-23 16:00:00 36.6 17 Este 30 Este 0 -- -- 28
2018-09-23 15:00:00 35.8 14 Este 25 Este 0 -- -- 30
2018-09-23 14:00:00 34.5 13 Este 25 Este 0 -- -- 28
2018-09-23 13:00:00 33.3 12 Este 22 Este 0 -- -- 29
2018-09-23 12:00:00 30.9 11 Este 22 Nordeste 0 -- -- 32
2018-09-23 11:00:00 28.5 16 Este 26 Nordeste 0 -- -- 35
2018-09-23 10:00:00 25 6 Nordeste 13 Este 0 -- -- 43
2018-09-23 09:00:00 20.6 6 Oeste 10 Noroeste 0 -- -- 60
2018-09-23 08:00:00 19.9 4 Noroeste 8 Norte 0 -- -- 59
2018-09-23 07:00:00 21 3 Noroeste 9 Noroeste 0 -- -- 57
2018-09-23 06:00:00 18.7 5 Noroeste 9 Noroeste 0 -- -- 64
2018-09-23 05:00:00 18.7 4 Noroeste 6 Noroeste 0 -- -- 65
2018-09-23 04:00:00 19.4 2 Oeste 6 Sudeste 0 -- -- 65
2018-09-23 03:00:00 20 3 Noroeste 9 Noroeste 0 -- -- 64
2018-09-23 02:00:00 21.1 3 Norte 6 Norte 0 -- -- 58
2018-09-23 01:00:00 22 3 Norte 6 Norte 0 -- -- 57
2018-09-23 00:00:00 23.3 2 Norte 7 Norte 0 -- -- 55
2018-09-22 23:00:00 24.9 0 Calma 10 Noroeste 0 -- -- 50
2018-09-22 22:00:00 27.3 7 Noroeste 14 Noroeste 0 -- -- 45
2018-09-22 21:00:00 29.5 4 Noroeste 17 Sudoeste 0 -- -- 40
2018-09-22 20:00:00 34.2 13 Sudoeste 24 Sudoeste 0 -- -- 32
2018-09-22 19:00:00 36.4 14 Este 28 Este 0 -- -- 23
2018-09-22 18:00:00 37 15 Este 32 Este 0 -- -- 24
2018-09-22 17:00:00 37.2 17 Este 33 Este 0 -- -- 27
2018-09-22 16:00:00 36.7 15 Este 30 Este 0 -- -- 28
2018-09-22 15:00:00 36.2 14 Este 30 Este 0 -- -- 30
2018-09-22 14:00:00 35 13 Este 27 Este 0 -- -- 30
2018-09-22 13:00:00 33.1 10 Nordeste 19 Nordeste 0 -- -- 36
2018-09-22 12:00:00 30.5 8 Este 18 Sudeste 0 -- -- 43
2018-09-22 11:00:00 27.4 12 Este 21 Nordeste 0 -- -- 49
2018-09-22 10:00:00 24.3 7 Nordeste 14 Nordeste 0 -- -- 53
2018-09-22 09:00:00 19.3 2 Norte 6 Noroeste 0 -- -- 71
2018-09-22 08:00:00 18 6 Noroeste 9 Noroeste 0 -- -- 74
2018-09-22 07:00:00 17.9 5 Noroeste 8 Noroeste 0 -- -- 75
2018-09-22 06:00:00 18.3 3 Noroeste 9 Oeste 0 -- -- 77
2018-09-22 05:00:00 18.8 3 Oeste 5 Noroeste 0 -- -- 74
2018-09-22 04:00:00 19.9 0 Calma 6 Noroeste 0 -- -- 74
2018-09-22 03:00:00 21.3 2 Este 8 Este 0 -- -- 73
2018-09-22 02:00:00 21.6 4 Sudeste 12 Sudeste 0 -- -- 71
2018-09-22 01:00:00 23 0 Calma 9 Noroeste 0 -- -- 65
2018-09-22 00:00:00 24.6 6 Noroeste 11 Norte 0 -- -- 61
2018-09-21 23:00:00 25.2 7 Norte 10 Noroeste 0 -- -- 58
2018-09-21 22:00:00 26.6 2 Noroeste 8 Norte 0 -- -- 49
2018-09-21 21:00:00 29.2 3 Oeste 7 Oeste 0 -- -- 40
2018-09-21 20:00:00 32.7 2 Sur 12 Sur 0 -- -- 36
2018-09-21 19:00:00 33.9 7 Sur 17 Sur 0 -- -- 32
2018-09-21 18:00:00 34.6 8 Sur 15 Oeste 0 -- -- 32
2018-09-21 17:00:00 34.4 5 Sur 18 Sur 0 -- -- 32
2018-09-21 16:00:00 33.9 10 Sudeste 16 Sudeste 0 -- -- 36
2018-09-21 15:00:00 32.7 4 Noroeste 12 Oeste 0 -- -- 41
2018-09-21 14:00:00 31.4 3 Sudoeste 12 Sur 0 -- -- 47
2018-09-21 13:00:00 29.7 5 Oeste 10 Oeste 0 -- -- 51
2018-09-21 12:00:00 27.4 2 Norte 10 Noroeste 0 -- -- 59
2018-09-21 11:00:00 25.1 3 Nordeste 7 Nordeste 0 -- -- 72
2018-09-21 10:00:00 22.2 4 Sur 6 Sur 0 -- -- 87
2018-09-21 09:00:00 18.3 0 Calma 4 Sudeste 0 -- -- 89
2018-09-21 08:00:00 18.2 0 Calma 3 Oeste 0 -- -- 92
2018-09-21 07:00:00 19.1 0 Calma 4 Sudeste 0 -- -- 87
2018-09-21 06:00:00 19.6 0 Calma 5 Noroeste 0 -- -- 88
2018-09-21 05:00:00 20.9 0 Calma 3 Sudeste 0 -- -- 85
2018-09-21 04:00:00 21.6 0 Calma 11 Noroeste 0 -- -- 82
2018-09-21 03:00:00 22 4 Noroeste 12 Oeste 0 -- -- 82
2018-09-21 02:00:00 23 6 Sudoeste 12 Oeste 0 -- -- 79
2018-09-21 01:00:00 23.3 7 Oeste 10 Oeste 0 -- -- 76
2018-09-21 00:00:00 23.9 4 Oeste 10 Oeste 0 -- -- 74
2018-09-20 23:00:00 24.7 9 Oeste 15 Oeste 0 -- -- 71
2018-09-20 22:00:00 26.2 4 Noroeste 9 Sudoeste 0 -- -- 66
2018-09-20 21:00:00 28.1 5 Oeste 20 Oeste 0 -- -- 58
2018-09-20 20:00:00 30.2 12 Oeste 26 Oeste 0 -- -- 50
2018-09-20 19:00:00 32.4 13 Sudoeste 21 Oeste 0 -- -- 47
2018-09-20 18:00:00 32.7 8 Sur 22 Sudeste 0 -- -- 40
2018-09-20 17:00:00 33.4 10 Sudeste 24 Este 0 -- -- 43
2018-09-20 16:00:00 33.4 6 Este 17 Nordeste 0 -- -- 40
2018-09-20 15:00:00 32.3 7 Este 16 Este 0 -- -- 44
2018-09-20 14:00:00 31.4 4 Sur 12 Noroeste 0 -- -- 49
2018-09-20 13:00:00 29.5 5 Norte 12 Norte 0 -- -- 54
2018-09-20 12:00:00 27.5 3 Noroeste 10 Nordeste 0 -- -- 61
2018-09-20 11:00:00 25.4 3 Norte 10 Norte 0 -- -- 67
2018-09-20 10:00:00 22.8 5 Norte 7 Norte 0 -- -- 77
2018-09-20 09:00:00 19.6 4 Oeste 5 Oeste 0 -- -- 87
2018-09-20 08:00:00 20.4 0 Calma 4 Sudeste 0 -- -- 87
2018-09-20 07:00:00 21.1 2 Noroeste 7 Norte 0 -- -- 84
2018-09-20 06:00:00 21.2 0 Calma 6 Sudoeste 0 -- -- 83
2018-09-20 05:00:00 20.5 0 Calma 4 Sudeste 0 -- -- 84
2018-09-20 04:00:00 21.3 3 Sudeste 5 Sudeste 0 -- -- 84
2018-09-20 03:00:00 21.9 0 Calma 7 Sur 0 -- -- 83
2018-09-20 02:00:00 22.1 3 Sudoeste 5 Sudeste 0 -- -- 78
2018-09-20 01:00:00 22.6 4 Sudeste 8 Sudeste 0 -- -- 76
2018-09-20 00:00:00 23.5 5 Sudeste 9 Sudeste 0 -- -- 73